sensor_id;sensor_type;location;lat;lon;timestamp;P1;durP1;ratioP1;P2;durP2;ratioP2
7110;SDS011;3597;42.650;23.386;2023-06-26T00:01:01;7.10;;;6.50;;
7110;SDS011;3597;42.650;23.386;2023-06-26T00:03:27;7.30;;;6.83;;
7110;SDS011;3597;42.650;23.386;2023-06-26T00:05:53;6.67;;;6.07;;
7110;SDS011;3597;42.650;23.386;2023-06-26T00:08:19;6.70;;;6.33;;
7110;SDS011;3597;42.650;23.386;2023-06-26T00:10:44;6.87;;;6.50;;
7110;SDS011;3597;42.650;23.386;2023-06-26T00:13:11;6.10;;;5.80;;
7110;SDS011;3597;42.650;23.386;2023-06-26T00:15:37;6.10;;;5.77;;
7110;SDS011;3597;42.650;23.386;2023-06-26T00:18:03;6.13;;;5.77;;
7110;SDS011;3597;42.650;23.386;2023-06-26T00:20:28;5.73;;;5.33;;
7110;SDS011;3597;42.650;23.386;2023-06-26T00:22:54;6.03;;;5.70;;
7110;SDS011;3597;42.650;23.386;2023-06-26T00:25:20;6.27;;;5.97;;
7110;SDS011;3597;42.650;23.386;2023-06-26T00:27:46;7.17;;;5.77;;
7110;SDS011;3597;42.650;23.386;2023-06-26T00:30:11;5.23;;;5.03;;
7110;SDS011;3597;42.650;23.386;2023-06-26T00:32:37;5.90;;;5.60;;
7110;SDS011;3597;42.650;23.386;2023-06-26T00:35:02;6.40;;;5.80;;
7110;SDS011;3597;42.650;23.386;2023-06-26T00:37:27;5.20;;;5.00;;
7110;SDS011;3597;42.650;23.386;2023-06-26T00:39:53;5.40;;;5.10;;
7110;SDS011;3597;42.650;23.386;2023-06-26T00:42:18;5.20;;;5.00;;
7110;SDS011;3597;42.650;23.386;2023-06-26T00:44:43;4.83;;;4.63;;
7110;SDS011;3597;42.650;23.386;2023-06-26T00:47:09;5.00;;;4.80;;
7110;SDS011;3597;42.650;23.386;2023-06-26T00:49:37;5.23;;;5.00;;
7110;SDS011;3597;42.650;23.386;2023-06-26T00:52:03;4.93;;;4.73;;
7110;SDS011;3597;42.650;23.386;2023-06-26T00:54:29;4.90;;;4.70;;
7110;SDS011;3597;42.650;23.386;2023-06-26T00:56:54;4.60;;;4.40;;
7110;SDS011;3597;42.650;23.386;2023-06-26T00:59:19;4.77;;;4.57;;
7110;SDS011;3597;42.650;23.386;2023-06-26T01:01:44;4.90;;;4.70;;
7110;SDS011;3597;42.650;23.386;2023-06-26T01:04:10;4.60;;;4.30;;
7110;SDS011;3597;42.650;23.386;2023-06-26T01:06:42;4.40;;;4.10;;
7110;SDS011;3597;42.650;23.386;2023-06-26T01:09:14;4.30;;;4.10;;
7110;SDS011;3597;42.650;23.386;2023-06-26T01:11:45;4.40;;;4.20;;
7110;SDS011;3597;42.650;23.386;2023-06-26T01:14:11;4.70;;;4.50;;
7110;SDS011;3597;42.650;23.386;2023-06-26T01:16:37;4.30;;;4.10;;
7110;SDS011;3597;42.650;23.386;2023-06-26T01:19:05;4.10;;;3.80;;
7110;SDS011;3597;42.650;23.386;2023-06-26T01:21:35;4.47;;;4.27;;
7110;SDS011;3597;42.650;23.386;2023-06-26T01:24:04;4.80;;;4.60;;
7110;SDS011;3597;42.650;23.386;2023-06-26T01:26:45;4.53;;;4.33;;
7110;SDS011;3597;42.650;23.386;2023-06-26T01:29:11;3.93;;;3.83;;
7110;SDS011;3597;42.650;23.386;2023-06-26T01:31:38;3.90;;;3.80;;
7110;SDS011;3597;42.650;23.386;2023-06-26T01:34:04;3.80;;;3.70;;
7110;SDS011;3597;42.650;23.386;2023-06-26T01:36:29;4.47;;;4.27;;
7110;SDS011;3597;42.650;23.386;2023-06-26T01:38:55;4.40;;;4.20;;
7110;SDS011;3597;42.650;23.386;2023-06-26T01:41:20;4.20;;;4.10;;
7110;SDS011;3597;42.650;23.386;2023-06-26T01:54:37;4.53;;;4.33;;
7110;SDS011;3597;42.650;23.386;2023-06-26T01:57:06;4.40;;;4.20;;
7110;SDS011;3597;42.650;23.386;2023-06-26T01:59:33;4.33;;;4.23;;
7110;SDS011;3597;42.650;23.386;2023-06-26T02:02:00;4.67;;;4.43;;
7110;SDS011;3597;42.650;23.386;2023-06-26T02:04:26;4.30;;;4.20;;
7110;SDS011;3597;42.650;23.386;2023-06-26T02:06:51;3.67;;;3.57;;
7110;SDS011;3597;42.650;23.386;2023-06-26T02:09:17;4.73;;;4.53;;
7110;SDS011;3597;42.650;23.386;2023-06-26T02:11:42;4.43;;;4.30;;
7110;SDS011;3597;42.650;23.386;2023-06-26T02:14:08;4.70;;;4.50;;
7110;SDS011;3597;42.650;23.386;2023-06-26T02:16:34;4.80;;;4.60;;
7110;SDS011;3597;42.650;23.386;2023-06-26T02:18:59;4.37;;;4.27;;
7110;SDS011;3597;42.650;23.386;2023-06-26T02:21:25;4.67;;;4.47;;
7110;SDS011;3597;42.650;23.386;2023-06-26T02:23:50;4.40;;;4.20;;
7110;SDS011;3597;42.650;23.386;2023-06-26T02:26:16;4.57;;;4.37;;
7110;SDS011;3597;42.650;23.386;2023-06-26T02:28:41;4.33;;;4.23;;
7110;SDS011;3597;42.650;23.386;2023-06-26T02:31:06;4.50;;;4.40;;
7110;SDS011;3597;42.650;23.386;2023-06-26T02:33:32;4.30;;;4.20;;
7110;SDS011;3597;42.650;23.386;2023-06-26T02:35:57;5.10;;;4.80;;
7110;SDS011;3597;42.650;23.386;2023-06-26T02:38:22;4.57;;;4.37;;
7110;SDS011;3597;42.650;23.386;2023-06-26T02:40:48;4.80;;;4.60;;
7110;SDS011;3597;42.650;23.386;2023-06-26T02:43:13;4.30;;;4.20;;
7110;SDS011;3597;42.650;23.386;2023-06-26T02:45:38;5.27;;;5.07;;
7110;SDS011;3597;42.650;23.386;2023-06-26T02:48:04;5.17;;;4.97;;
7110;SDS011;3597;42.650;23.386;2023-06-26T02:50:29;5.20;;;5.00;;
7110;SDS011;3597;42.650;23.386;2023-06-26T02:52:54;5.10;;;4.80;;
7110;SDS011;3597;42.650;23.386;2023-06-26T02:55:20;5.60;;;5.30;;
7110;SDS011;3597;42.650;23.386;2023-06-26T02:57:46;5.23;;;5.03;;
7110;SDS011;3597;42.650;23.386;2023-06-26T03:00:11;5.53;;;5.33;;
7110;SDS011;3597;42.650;23.386;2023-06-26T03:02:38;5.50;;;5.30;;
7110;SDS011;3597;42.650;23.386;2023-06-26T03:05:03;5.43;;;5.13;;
7110;SDS011;3597;42.650;23.386;2023-06-26T03:07:29;6.07;;;5.87;;
7110;SDS011;3597;42.650;23.386;2023-06-26T03:09:54;5.73;;;5.53;;
7110;SDS011;3597;42.650;23.386;2023-06-26T03:12:20;5.80;;;5.60;;
7110;SDS011;3597;42.650;23.386;2023-06-26T03:14:45;6.40;;;6.10;;
7110;SDS011;3597;42.650;23.386;2023-06-26T03:17:10;5.73;;;5.53;;
7110;SDS011;3597;42.650;23.386;2023-06-26T03:19:36;5.50;;;5.20;;
7110;SDS011;3597;42.650;23.386;2023-06-26T03:22:01;5.80;;;5.50;;
7110;SDS011;3597;42.650;23.386;2023-06-26T03:24:26;6.13;;;5.90;;
7110;SDS011;3597;42.650;23.386;2023-06-26T03:26:52;6.40;;;6.00;;
7110;SDS011;3597;42.650;23.386;2023-06-26T03:29:17;5.73;;;5.43;;
7110;SDS011;3597;42.650;23.386;2023-06-26T03:31:43;6.13;;;5.77;;
7110;SDS011;3597;42.650;23.386;2023-06-26T03:34:08;5.80;;;5.40;;
7110;SDS011;3597;42.650;23.386;2023-06-26T03:36:33;6.37;;;5.97;;
7110;SDS011;3597;42.650;23.386;2023-06-26T03:39:00;5.17;;;4.97;;
7110;SDS011;3597;42.650;23.386;2023-06-26T03:41:26;5.93;;;5.73;;
7110;SDS011;3597;42.650;23.386;2023-06-26T03:43:51;6.17;;;5.87;;
7110;SDS011;3597;42.650;23.386;2023-06-26T03:46:16;5.93;;;5.73;;
7110;SDS011;3597;42.650;23.386;2023-06-26T03:48:42;6.37;;;6.07;;
7110;SDS011;3597;42.650;23.386;2023-06-26T03:51:07;6.33;;;6.03;;
7110;SDS011;3597;42.650;23.386;2023-06-26T03:53:33;6.07;;;5.70;;
7110;SDS011;3597;42.650;23.386;2023-06-26T03:55:58;6.00;;;5.80;;
7110;SDS011;3597;42.650;23.386;2023-06-26T03:58:24;6.10;;;5.80;;
7110;SDS011;3597;42.650;23.386;2023-06-26T04:00:50;6.40;;;6.10;;
7110;SDS011;3597;42.650;23.386;2023-06-26T04:03:15;5.80;;;5.60;;
7110;SDS011;3597;42.650;23.386;2023-06-26T04:05:41;6.27;;;6.00;;
7110;SDS011;3597;42.650;23.386;2023-06-26T04:08:06;5.90;;;5.70;;
7110;SDS011;3597;42.650;23.386;2023-06-26T04:10:32;6.87;;;6.57;;
7110;SDS011;3597;42.650;23.386;2023-06-26T04:12:58;6.17;;;5.87;;
7110;SDS011;3597;42.650;23.386;2023-06-26T04:15:23;6.20;;;5.90;;
7110;SDS011;3597;42.650;23.386;2023-06-26T04:17:48;6.07;;;5.87;;
7110;SDS011;3597;42.650;23.386;2023-06-26T04:20:14;7.93;;;7.67;;
7110;SDS011;3597;42.650;23.386;2023-06-26T04:22:40;6.63;;;6.33;;
7110;SDS011;3597;42.650;23.386;2023-06-26T04:25:05;7.97;;;7.57;;
7110;SDS011;3597;42.650;23.386;2023-06-26T04:27:30;31.73;;;30.37;;
7110;SDS011;3597;42.650;23.386;2023-06-26T04:29:56;9.77;;;9.20;;
7110;SDS011;3597;42.650;23.386;2023-06-26T04:32:21;6.00;;;5.80;;
7110;SDS011;3597;42.650;23.386;2023-06-26T04:34:46;5.27;;;5.07;;
7110;SDS011;3597;42.650;23.386;2023-06-26T04:37:12;4.97;;;4.77;;
7110;SDS011;3597;42.650;23.386;2023-06-26T04:39:41;5.17;;;4.87;;
7110;SDS011;3597;42.650;23.386;2023-06-26T04:42:06;4.97;;;4.77;;
7110;SDS011;3597;42.650;23.386;2023-06-26T04:44:32;4.70;;;4.60;;
7110;SDS011;3597;42.650;23.386;2023-06-26T04:46:58;4.67;;;4.47;;
7110;SDS011;3597;42.650;23.386;2023-06-26T04:49:23;5.27;;;4.97;;
7110;SDS011;3597;42.650;23.386;2023-06-26T04:51:49;4.73;;;4.57;;
7110;SDS011;3597;42.650;23.386;2023-06-26T04:54:16;5.40;;;5.13;;
7110;SDS011;3597;42.650;23.386;2023-06-26T04:56:41;4.50;;;4.40;;
7110;SDS011;3597;42.650;23.386;2023-06-26T04:59:07;5.07;;;4.87;;
7110;SDS011;3597;42.650;23.386;2023-06-26T05:01:37;5.37;;;5.17;;
7110;SDS011;3597;42.650;23.386;2023-06-26T05:04:04;5.20;;;5.00;;
7110;SDS011;3597;42.650;23.386;2023-06-26T05:06:30;5.67;;;5.47;;
7110;SDS011;3597;42.650;23.386;2023-06-26T05:08:55;6.17;;;5.97;;
7110;SDS011;3597;42.650;23.386;2023-06-26T05:11:21;5.73;;;5.53;;
7110;SDS011;3597;42.650;23.386;2023-06-26T05:13:46;6.40;;;5.80;;
7110;SDS011;3597;42.650;23.386;2023-06-26T05:16:12;5.80;;;5.60;;
7110;SDS011;3597;42.650;23.386;2023-06-26T05:18:37;5.83;;;5.60;;
7110;SDS011;3597;42.650;23.386;2023-06-26T05:21:03;5.33;;;5.13;;
7110;SDS011;3597;42.650;23.386;2023-06-26T05:23:32;6.03;;;5.53;;
7110;SDS011;3597;42.650;23.386;2023-06-26T05:25:58;6.30;;;6.00;;
7110;SDS011;3597;42.650;23.386;2023-06-26T05:28:24;5.00;;;4.80;;
7110;SDS011;3597;42.650;23.386;2023-06-26T05:30:52;5.07;;;4.87;;
7110;SDS011;3597;42.650;23.386;2023-06-26T05:33:18;4.93;;;4.63;;
7110;SDS011;3597;42.650;23.386;2023-06-26T05:35:47;5.40;;;5.20;;
7110;SDS011;3597;42.650;23.386;2023-06-26T05:38:13;5.10;;;4.90;;
7110;SDS011;3597;42.650;23.386;2023-06-26T05:40:39;5.17;;;5.00;;
7110;SDS011;3597;42.650;23.386;2023-06-26T05:43:05;5.03;;;4.83;;
7110;SDS011;3597;42.650;23.386;2023-06-26T05:45:31;5.20;;;5.00;;
7110;SDS011;3597;42.650;23.386;2023-06-26T05:47:57;5.07;;;4.73;;
7110;SDS011;3597;42.650;23.386;2023-06-26T05:50:22;4.60;;;4.50;;
7110;SDS011;3597;42.650;23.386;2023-06-26T05:52:48;5.60;;;4.70;;
7110;SDS011;3597;42.650;23.386;2023-06-26T05:55:14;5.07;;;4.83;;
7110;SDS011;3597;42.650;23.386;2023-06-26T05:57:39;4.03;;;3.93;;
7110;SDS011;3597;42.650;23.386;2023-06-26T06:00:06;4.37;;;4.27;;
7110;SDS011;3597;42.650;23.386;2023-06-26T06:02:35;5.10;;;4.90;;
7110;SDS011;3597;42.650;23.386;2023-06-26T06:05:01;4.40;;;4.20;;
7110;SDS011;3597;42.650;23.386;2023-06-26T06:07:27;4.80;;;4.70;;
7110;SDS011;3597;42.650;23.386;2023-06-26T06:09:52;4.23;;;4.03;;
7110;SDS011;3597;42.650;23.386;2023-06-26T06:12:17;4.57;;;4.43;;
7110;SDS011;3597;42.650;23.386;2023-06-26T06:14:43;4.33;;;4.23;;
7110;SDS011;3597;42.650;23.386;2023-06-26T06:17:08;5.00;;;4.80;;
7110;SDS011;3597;42.650;23.386;2023-06-26T06:19:33;4.43;;;4.33;;
7110;SDS011;3597;42.650;23.386;2023-06-26T06:21:59;4.03;;;3.93;;
7110;SDS011;3597;42.650;23.386;2023-06-26T06:24:24;3.83;;;3.73;;
7110;SDS011;3597;42.650;23.386;2023-06-26T06:26:49;4.13;;;3.87;;
7110;SDS011;3597;42.650;23.386;2023-06-26T06:29:15;3.80;;;3.50;;
7110;SDS011;3597;42.650;23.386;2023-06-26T06:31:40;4.00;;;3.80;;
7110;SDS011;3597;42.650;23.386;2023-06-26T06:34:05;3.77;;;3.67;;
7110;SDS011;3597;42.650;23.386;2023-06-26T06:36:31;3.90;;;3.80;;
7110;SDS011;3597;42.650;23.386;2023-06-26T06:38:56;4.10;;;4.00;;
7110;SDS011;3597;42.650;23.386;2023-06-26T06:41:21;3.80;;;3.60;;
7110;SDS011;3597;42.650;23.386;2023-06-26T06:43:47;4.00;;;3.80;;
7110;SDS011;3597;42.650;23.386;2023-06-26T06:46:12;4.30;;;4.20;;
7110;SDS011;3597;42.650;23.386;2023-06-26T06:48:38;3.90;;;3.73;;
7110;SDS011;3597;42.650;23.386;2023-06-26T06:51:03;3.80;;;3.60;;
7110;SDS011;3597;42.650;23.386;2023-06-26T06:53:28;3.25;;;3.22;;
7110;SDS011;3597;42.650;23.386;2023-06-26T06:55:54;3.47;;;3.38;;
7110;SDS011;3597;42.650;23.386;2023-06-26T06:58:19;3.78;;;3.60;;
7110;SDS011;3597;42.650;23.386;2023-06-26T07:00:45;3.38;;;3.28;;
7110;SDS011;3597;42.650;23.386;2023-06-26T07:03:10;2.90;;;2.90;;
7110;SDS011;3597;42.650;23.386;2023-06-26T07:05:36;2.92;;;2.83;;
7110;SDS011;3597;42.650;23.386;2023-06-26T07:08:02;2.85;;;2.75;;
7110;SDS011;3597;42.650;23.386;2023-06-26T07:10:28;2.92;;;2.88;;
7110;SDS011;3597;42.650;23.386;2023-06-26T07:12:53;3.10;;;3.00;;
7110;SDS011;3597;42.650;23.386;2023-06-26T07:15:18;2.67;;;2.67;;
7110;SDS011;3597;42.650;23.386;2023-06-26T07:17:44;3.38;;;3.28;;
7110;SDS011;3597;42.650;23.386;2023-06-26T07:20:09;3.35;;;3.30;;
7110;SDS011;3597;42.650;23.386;2023-06-26T07:22:40;4.60;;;4.50;;
7110;SDS011;3597;42.650;23.386;2023-06-26T07:25:05;3.67;;;3.58;;
7110;SDS011;3597;42.650;23.386;2023-06-26T07:27:34;3.38;;;3.25;;
7110;SDS011;3597;42.650;23.386;2023-06-26T07:29:59;3.25;;;3.05;;
7110;SDS011;3597;42.650;23.386;2023-06-26T07:32:24;3.08;;;2.97;;
7110;SDS011;3597;42.650;23.386;2023-06-26T07:34:50;2.95;;;2.85;;
7110;SDS011;3597;42.650;23.386;2023-06-26T07:37:15;2.88;;;2.85;;
7110;SDS011;3597;42.650;23.386;2023-06-26T07:39:40;2.67;;;2.67;;
7110;SDS011;3597;42.650;23.386;2023-06-26T07:42:06;3.03;;;2.92;;
7110;SDS011;3597;42.650;23.386;2023-06-26T07:44:31;2.88;;;2.83;;
7110;SDS011;3597;42.650;23.386;2023-06-26T07:46:56;2.70;;;2.60;;
7110;SDS011;3597;42.650;23.386;2023-06-26T07:49:22;2.40;;;2.40;;
7110;SDS011;3597;42.650;23.386;2023-06-26T07:51:48;2.63;;;2.53;;
7110;SDS011;3597;42.650;23.386;2023-06-26T07:54:13;2.70;;;2.60;;
7110;SDS011;3597;42.650;23.386;2023-06-26T07:56:52;2.35;;;2.35;;
7110;SDS011;3597;42.650;23.386;2023-06-26T07:59:17;2.83;;;2.63;;
7110;SDS011;3597;42.650;23.386;2023-06-26T08:01:43;2.22;;;2.22;;
7110;SDS011;3597;42.650;23.386;2023-06-26T08:04:08;2.55;;;2.55;;
7110;SDS011;3597;42.650;23.386;2023-06-26T08:06:35;2.17;;;2.17;;
7110;SDS011;3597;42.650;23.386;2023-06-26T08:09:05;2.72;;;2.53;;
7110;SDS011;3597;42.650;23.386;2023-06-26T08:11:33;2.40;;;2.30;;
7110;SDS011;3597;42.650;23.386;2023-06-26T08:13:59;2.67;;;2.05;;
7110;SDS011;3597;42.650;23.386;2023-06-26T08:16:24;2.40;;;2.20;;
7110;SDS011;3597;42.650;23.386;2023-06-26T08:18:50;2.50;;;2.50;;
7110;SDS011;3597;42.650;23.386;2023-06-26T08:21:15;2.38;;;2.38;;
7110;SDS011;3597;42.650;23.386;2023-06-26T08:23:41;3.03;;;2.92;;
7110;SDS011;3597;42.650;23.386;2023-06-26T08:26:06;2.70;;;2.65;;
7110;SDS011;3597;42.650;23.386;2023-06-26T08:28:31;2.55;;;2.45;;
7110;SDS011;3597;42.650;23.386;2023-06-26T08:30:57;2.30;;;2.30;;
7110;SDS011;3597;42.650;23.386;2023-06-26T08:33:22;2.90;;;2.90;;
7110;SDS011;3597;42.650;23.386;2023-06-26T08:35:47;2.17;;;2.10;;
7110;SDS011;3597;42.650;23.386;2023-06-26T08:38:13;2.50;;;2.30;;
7110;SDS011;3597;42.650;23.386;2023-06-26T08:40:38;2.30;;;2.30;;
7110;SDS011;3597;42.650;23.386;2023-06-26T08:43:04;2.17;;;2.17;;
7110;SDS011;3597;42.650;23.386;2023-06-26T08:45:29;2.92;;;2.30;;
7110;SDS011;3597;42.650;23.386;2023-06-26T08:47:55;2.83;;;2.72;;
7110;SDS011;3597;42.650;23.386;2023-06-26T08:50:21;2.33;;;2.20;;
7110;SDS011;3597;42.650;23.386;2023-06-26T08:55:26;2.40;;;2.40;;
7110;SDS011;3597;42.650;23.386;2023-06-26T08:57:52;2.63;;;2.50;;
7110;SDS011;3597;42.650;23.386;2023-06-26T09:00:18;2.90;;;2.70;;
7110;SDS011;3597;42.650;23.386;2023-06-26T09:02:45;2.50;;;2.50;;
7110;SDS011;3597;42.650;23.386;2023-06-26T09:05:10;2.60;;;2.42;;
7110;SDS011;3597;42.650;23.386;2023-06-26T09:07:36;2.20;;;2.20;;
7110;SDS011;3597;42.650;23.386;2023-06-26T09:10:01;2.40;;;2.40;;
7110;SDS011;3597;42.650;23.386;2023-06-26T09:12:27;3.83;;;2.30;;
7110;SDS011;3597;42.650;23.386;2023-06-26T09:14:53;2.10;;;2.10;;
7110;SDS011;3597;42.650;23.386;2023-06-26T09:17:23;2.25;;;2.25;;
7110;SDS011;3597;42.650;23.386;2023-06-26T09:19:49;2.35;;;2.30;;
7110;SDS011;3597;42.650;23.386;2023-06-26T09:22:15;2.22;;;2.20;;
7110;SDS011;3597;42.650;23.386;2023-06-26T09:24:43;2.10;;;2.10;;
7110;SDS011;3597;42.650;23.386;2023-06-26T09:27:09;2.10;;;2.10;;
7110;SDS011;3597;42.650;23.386;2023-06-26T09:29:35;2.05;;;2.05;;
7110;SDS011;3597;42.650;23.386;2023-06-26T09:32:00;2.20;;;2.10;;
7110;SDS011;3597;42.650;23.386;2023-06-26T09:34:32;1.90;;;1.90;;
7110;SDS011;3597;42.650;23.386;2023-06-26T09:36:58;2.10;;;2.00;;
7110;SDS011;3597;42.650;23.386;2023-06-26T09:39:24;1.70;;;1.70;;
7110;SDS011;3597;42.650;23.386;2023-06-26T09:41:49;2.50;;;2.40;;
7110;SDS011;3597;42.650;23.386;2023-06-26T09:44:15;2.13;;;2.10;;
7110;SDS011;3597;42.650;23.386;2023-06-26T09:46:40;2.03;;;2.00;;
7110;SDS011;3597;42.650;23.386;2023-06-26T09:49:10;2.17;;;2.17;;
7110;SDS011;3597;42.650;23.386;2023-06-26T09:51:36;2.83;;;2.33;;
7110;SDS011;3597;42.650;23.386;2023-06-26T09:54:03;2.15;;;2.15;;
7110;SDS011;3597;42.650;23.386;2023-06-26T09:56:29;1.98;;;1.98;;
7110;SDS011;3597;42.650;23.386;2023-06-26T09:58:56;2.40;;;2.40;;
7110;SDS011;3597;42.650;23.386;2023-06-26T10:01:24;2.00;;;2.00;;
7110;SDS011;3597;42.650;23.386;2023-06-26T10:03:51;2.63;;;2.50;;
7110;SDS011;3597;42.650;23.386;2023-06-26T10:06:20;2.53;;;2.53;;
7110;SDS011;3597;42.650;23.386;2023-06-26T10:08:47;2.33;;;2.33;;
7110;SDS011;3597;42.650;23.386;2023-06-26T10:11:15;2.30;;;2.30;;
7110;SDS011;3597;42.650;23.386;2023-06-26T10:13:42;2.20;;;2.20;;
7110;SDS011;3597;42.650;23.386;2023-06-26T10:16:11;2.50;;;2.50;;
7110;SDS011;3597;42.650;23.386;2023-06-26T10:18:38;2.63;;;2.57;;
7110;SDS011;3597;42.650;23.386;2023-06-26T10:21:04;2.60;;;2.60;;
7110;SDS011;3597;42.650;23.386;2023-06-26T10:23:30;2.55;;;2.50;;
7110;SDS011;3597;42.650;23.386;2023-06-26T10:25:56;2.63;;;2.63;;
7110;SDS011;3597;42.650;23.386;2023-06-26T10:28:23;3.27;;;3.07;;
7110;SDS011;3597;42.650;23.386;2023-06-26T10:30:51;2.60;;;2.60;;
7110;SDS011;3597;42.650;23.386;2023-06-26T10:33:18;3.58;;;3.47;;
7110;SDS011;3597;42.650;23.386;2023-06-26T10:35:44;2.72;;;2.50;;
7110;SDS011;3597;42.650;23.386;2023-06-26T10:38:10;2.38;;;2.38;;
7110;SDS011;3597;42.650;23.386;2023-06-26T10:40:42;2.75;;;2.75;;
7110;SDS011;3597;42.650;23.386;2023-06-26T10:43:12;2.90;;;2.83;;
7110;SDS011;3597;42.650;23.386;2023-06-26T10:45:48;3.20;;;3.08;;
7110;SDS011;3597;42.650;23.386;2023-06-26T10:48:18;2.97;;;2.77;;
7110;SDS011;3597;42.650;23.386;2023-06-26T10:50:46;2.90;;;2.80;;
7110;SDS011;3597;42.650;23.386;2023-06-26T10:53:16;2.53;;;2.53;;
7110;SDS011;3597;42.650;23.386;2023-06-26T10:55:57;2.55;;;2.47;;
7110;SDS011;3597;42.650;23.386;2023-06-26T11:03:37;3.00;;;2.90;;
7110;SDS011;3597;42.650;23.386;2023-06-26T11:06:12;2.33;;;2.33;;
7110;SDS011;3597;42.650;23.386;2023-06-26T11:11:13;2.50;;;2.50;;
7110;SDS011;3597;42.650;23.386;2023-06-26T11:13:39;2.77;;;2.67;;
7110;SDS011;3597;42.650;23.386;2023-06-26T11:16:05;2.67;;;2.67;;
7110;SDS011;3597;42.650;23.386;2023-06-26T11:18:31;2.87;;;2.77;;
7110;SDS011;3597;42.650;23.386;2023-06-26T11:21:04;2.80;;;2.80;;
7110;SDS011;3597;42.650;23.386;2023-06-26T11:23:39;2.72;;;2.63;;
7110;SDS011;3597;42.650;23.386;2023-06-26T11:26:15;3.00;;;3.00;;
7110;SDS011;3597;42.650;23.386;2023-06-26T11:28:51;2.60;;;2.60;;
7110;SDS011;3597;42.650;23.386;2023-06-26T11:31:38;2.55;;;2.55;;
7110;SDS011;3597;42.650;23.386;2023-06-26T11:34:05;2.70;;;2.53;;
7110;SDS011;3597;42.650;23.386;2023-06-26T11:36:36;3.03;;;2.25;;
7110;SDS011;3597;42.650;23.386;2023-06-26T11:39:02;2.40;;;2.40;;
7110;SDS011;3597;42.650;23.386;2023-06-26T11:41:32;2.47;;;2.28;;
7110;SDS011;3597;42.650;23.386;2023-06-26T11:44:04;2.17;;;2.17;;
7110;SDS011;3597;42.650;23.386;2023-06-26T11:46:31;2.80;;;2.70;;
7110;SDS011;3597;42.650;23.386;2023-06-26T11:48:57;2.70;;;2.60;;
7110;SDS011;3597;42.650;23.386;2023-06-26T11:51:22;2.85;;;2.75;;
7110;SDS011;3597;42.650;23.386;2023-06-26T11:53:48;2.00;;;2.00;;
7110;SDS011;3597;42.650;23.386;2023-06-26T11:56:15;2.00;;;2.00;;
7110;SDS011;3597;42.650;23.386;2023-06-26T12:01:33;1.90;;;1.90;;
7110;SDS011;3597;42.650;23.386;2023-06-26T12:04:00;2.05;;;2.05;;
7110;SDS011;3597;42.650;23.386;2023-06-26T12:06:28;1.83;;;1.83;;
7110;SDS011;3597;42.650;23.386;2023-06-26T12:08:54;1.98;;;1.98;;
7110;SDS011;3597;42.650;23.386;2023-06-26T12:11:20;2.08;;;2.08;;
7110;SDS011;3597;42.650;23.386;2023-06-26T12:13:47;2.00;;;1.90;;
7110;SDS011;3597;42.650;23.386;2023-06-26T12:16:14;2.00;;;2.00;;
7110;SDS011;3597;42.650;23.386;2023-06-26T12:18:39;2.20;;;2.20;;
7110;SDS011;3597;42.650;23.386;2023-06-26T12:21:05;2.65;;;2.55;;
7110;SDS011;3597;42.650;23.386;2023-06-26T12:23:35;2.47;;;2.47;;
7110;SDS011;3597;42.650;23.386;2023-06-26T12:26:19;2.00;;;2.00;;
7110;SDS011;3597;42.650;23.386;2023-06-26T12:28:45;1.90;;;1.90;;
7110;SDS011;3597;42.650;23.386;2023-06-26T12:31:19;2.25;;;2.25;;
7110;SDS011;3597;42.650;23.386;2023-06-26T12:33:46;2.33;;;2.33;;
7110;SDS011;3597;42.650;23.386;2023-06-26T12:36:12;2.30;;;2.30;;
7110;SDS011;3597;42.650;23.386;2023-06-26T12:38:37;2.08;;;2.08;;
7110;SDS011;3597;42.650;23.386;2023-06-26T12:41:03;1.73;;;1.73;;
7110;SDS011;3597;42.650;23.386;2023-06-26T12:43:28;2.40;;;2.40;;
7110;SDS011;3597;42.650;23.386;2023-06-26T12:45:54;2.03;;;2.03;;
7110;SDS011;3597;42.650;23.386;2023-06-26T12:48:21;2.10;;;2.03;;
7110;SDS011;3597;42.650;23.386;2023-06-26T12:50:46;1.90;;;1.90;;
7110;SDS011;3597;42.650;23.386;2023-06-26T12:53:12;2.00;;;2.00;;
7110;SDS011;3597;42.650;23.386;2023-06-26T12:55:38;2.47;;;2.38;;
7110;SDS011;3597;42.650;23.386;2023-06-26T12:58:03;2.42;;;2.42;;
7110;SDS011;3597;42.650;23.386;2023-06-26T13:00:28;2.15;;;2.15;;
7110;SDS011;3597;42.650;23.386;2023-06-26T13:02:55;2.40;;;2.40;;
7110;SDS011;3597;42.650;23.386;2023-06-26T13:05:20;3.13;;;3.03;;
7110;SDS011;3597;42.650;23.386;2023-06-26T13:07:46;2.60;;;2.60;;
7110;SDS011;3597;42.650;23.386;2023-06-26T13:10:11;2.80;;;2.63;;
7110;SDS011;3597;42.650;23.386;2023-06-26T13:12:37;2.30;;;2.30;;
7110;SDS011;3597;42.650;23.386;2023-06-26T13:15:02;2.60;;;2.58;;
7110;SDS011;3597;42.650;23.386;2023-06-26T13:17:27;3.40;;;3.30;;
7110;SDS011;3597;42.650;23.386;2023-06-26T13:19:53;3.42;;;3.17;;
7110;SDS011;3597;42.650;23.386;2023-06-26T13:22:18;2.22;;;2.22;;
7110;SDS011;3597;42.650;23.386;2023-06-26T13:24:43;2.42;;;2.42;;
7110;SDS011;3597;42.650;23.386;2023-06-26T13:27:09;2.67;;;2.60;;
7110;SDS011;3597;42.650;23.386;2023-06-26T13:29:34;2.55;;;2.55;;
7110;SDS011;3597;42.650;23.386;2023-06-26T13:31:59;2.58;;;2.58;;
7110;SDS011;3597;42.650;23.386;2023-06-26T13:34:27;2.58;;;2.47;;
7110;SDS011;3597;42.650;23.386;2023-06-26T13:36:53;2.45;;;2.30;;
7110;SDS011;3597;42.650;23.386;2023-06-26T13:39:19;2.70;;;2.70;;
7110;SDS011;3597;42.650;23.386;2023-06-26T13:41:45;2.40;;;2.40;;
7110;SDS011;3597;42.650;23.386;2023-06-26T13:44:10;2.08;;;2.08;;
7110;SDS011;3597;42.650;23.386;2023-06-26T13:46:36;2.80;;;2.80;;
7110;SDS011;3597;42.650;23.386;2023-06-26T13:49:01;2.97;;;2.88;;
7110;SDS011;3597;42.650;23.386;2023-06-26T13:51:26;2.95;;;2.72;;
7110;SDS011;3597;42.650;23.386;2023-06-26T13:53:52;2.50;;;2.50;;
7110;SDS011;3597;42.650;23.386;2023-06-26T13:56:17;3.00;;;2.90;;
7110;SDS011;3597;42.650;23.386;2023-06-26T13:58:42;2.47;;;2.30;;
7110;SDS011;3597;42.650;23.386;2023-06-26T14:01:08;2.42;;;2.42;;
7110;SDS011;3597;42.650;23.386;2023-06-26T14:03:33;2.55;;;2.50;;
7110;SDS011;3597;42.650;23.386;2023-06-26T14:05:59;2.40;;;2.40;;
7110;SDS011;3597;42.650;23.386;2023-06-26T14:08:24;3.33;;;2.60;;
7110;SDS011;3597;42.650;23.386;2023-06-26T14:10:49;2.90;;;2.90;;
7110;SDS011;3597;42.650;23.386;2023-06-26T14:13:15;2.63;;;2.63;;
7110;SDS011;3597;42.650;23.386;2023-06-26T14:15:41;2.13;;;2.13;;
7110;SDS011;3597;42.650;23.386;2023-06-26T14:18:06;2.30;;;2.30;;
7110;SDS011;3597;42.650;23.386;2023-06-26T14:20:32;2.20;;;2.20;;
7110;SDS011;3597;42.650;23.386;2023-06-26T14:22:58;2.70;;;2.70;;
7110;SDS011;3597;42.650;23.386;2023-06-26T14:25:23;2.42;;;2.42;;
7110;SDS011;3597;42.650;23.386;2023-06-26T14:27:48;2.60;;;2.60;;
7110;SDS011;3597;42.650;23.386;2023-06-26T14:30:14;2.80;;;2.80;;
7110;SDS011;3597;42.650;23.386;2023-06-26T14:32:39;2.40;;;2.40;;
7110;SDS011;3597;42.650;23.386;2023-06-26T14:35:05;3.42;;;3.22;;
7110;SDS011;3597;42.650;23.386;2023-06-26T14:37:31;2.47;;;2.47;;
7110;SDS011;3597;42.650;23.386;2023-06-26T14:39:57;2.65;;;2.65;;
7110;SDS011;3597;42.650;23.386;2023-06-26T14:42:23;2.88;;;2.78;;
7110;SDS011;3597;42.650;23.386;2023-06-26T14:44:49;2.60;;;2.50;;
7110;SDS011;3597;42.650;23.386;2023-06-26T14:47:18;3.73;;;2.97;;
7110;SDS011;3597;42.650;23.386;2023-06-26T14:49:43;3.42;;;3.05;;
7110;SDS011;3597;42.650;23.386;2023-06-26T14:52:09;2.97;;;2.97;;
7110;SDS011;3597;42.650;23.386;2023-06-26T14:54:34;3.10;;;2.78;;
7110;SDS011;3597;42.650;23.386;2023-06-26T14:57:02;3.55;;;3.42;;
7110;SDS011;3597;42.650;23.386;2023-06-26T14:59:28;2.95;;;2.95;;
7110;SDS011;3597;42.650;23.386;2023-06-26T15:01:53;2.73;;;2.73;;
7110;SDS011;3597;42.650;23.386;2023-06-26T15:04:19;2.53;;;2.53;;
7110;SDS011;3597;42.650;23.386;2023-06-26T15:06:44;2.57;;;2.57;;
7110;SDS011;3597;42.650;23.386;2023-06-26T15:09:09;2.53;;;2.47;;
7110;SDS011;3597;42.650;23.386;2023-06-26T15:11:35;6.30;;;2.77;;
7110;SDS011;3597;42.650;23.386;2023-06-26T15:14:01;2.50;;;2.40;;
7110;SDS011;3597;42.650;23.386;2023-06-26T15:16:26;2.10;;;2.10;;
7110;SDS011;3597;42.650;23.386;2023-06-26T15:18:52;2.30;;;2.30;;